createdAt,value
2023-03-03T00:00:35.810Z,73.75
2023-03-03T00:02:09.002Z,68.38
2023-03-03T00:03:42.537Z,72.47
2023-03-03T00:05:17.132Z,80.70
2023-03-03T00:06:50.256Z,78.50
2023-03-03T00:08:23.103Z,74.70
2023-03-03T00:09:56.586Z,77.13
2023-03-03T00:11:29.662Z,73.95
2023-03-03T00:13:03.104Z,77.03
2023-03-03T00:14:36.157Z,78.53
2023-03-03T00:16:17.106Z,68.28
2023-03-03T00:17:49.432Z,74.72
2023-03-03T00:19:23.247Z,74.78
2023-03-03T00:20:57.050Z,71.07
2023-03-03T00:22:32.958Z,75.72
2023-03-03T00:24:24.160Z,74.63
2023-03-03T00:25:56.839Z,77.57
2023-03-03T00:27:32.553Z,83.15
2023-03-03T00:29:29.176Z,99.63
2023-03-03T00:31:03.749Z,75.22
2023-03-03T00:32:47.129Z,73.18
2023-03-03T00:34:26.892Z,67.80
2023-03-03T00:36:22.686Z,64.25
2023-03-03T00:37:57.850Z,67.00
2023-03-03T00:39:34.711Z,71.90
2023-03-03T00:41:17.673Z,64.25
2023-03-03T00:42:53.736Z,71.47
2023-03-03T00:44:41.307Z,73.20
2023-03-03T00:46:19.488Z,70.93
2023-03-03T00:47:54.696Z,70.65
2023-03-03T00:49:28.416Z,70.60
2023-03-03T00:51:03.267Z,69.13
2023-03-03T00:52:37.698Z,70.57
2023-03-03T00:54:10.929Z,76.05
2023-03-03T00:55:44.617Z,63.70
2023-03-03T00:57:16.903Z,67.95
2023-03-03T00:58:50.432Z,75.00
2023-03-03T01:00:25.104Z,71.85
2023-03-03T01:01:58.346Z,70.72
2023-03-03T01:03:33.458Z,66.93
2023-03-03T01:05:06.622Z,66.97
2023-03-03T01:06:39.939Z,61.72
2023-03-03T01:08:12.374Z,65.78
2023-03-03T01:09:45.898Z,66.50
2023-03-03T01:11:23.061Z,69.78
2023-03-03T01:12:55.773Z,63.10
2023-03-03T01:14:29.001Z,67.63
2023-03-03T01:16:03.544Z,64.82
2023-03-03T01:17:36.194Z,66.50
2023-03-03T01:19:10.775Z,72.78
2023-03-03T01:20:44.143Z,65.50
2023-03-03T01:22:17.457Z,67.63
2023-03-03T01:23:50.645Z,59.25
2023-03-03T01:25:24.273Z,61.67
2023-03-03T01:26:56.388Z,61.88
2023-03-03T01:28:30.125Z,64.95
2023-03-03T01:30:02.694Z,60.40
2023-03-03T01:31:35.961Z,67.85
2023-03-03T01:33:09.388Z,65.38
2023-03-03T01:34:44.060Z,66.53
2023-03-03T01:36:17.182Z,62.75
2023-03-03T01:37:50.435Z,65.88
2023-03-03T01:39:23.642Z,69.32
2023-03-03T01:40:58.253Z,72.07
2023-03-03T01:42:31.737Z,62.33
2023-03-03T01:44:06.597Z,65.00
2023-03-03T01:46:06.965Z,73.25
2023-03-03T01:47:40.686Z,64.82
2023-03-03T01:49:17.273Z,73.00
2023-03-03T01:50:56.732Z,69.85
2023-03-03T01:52:37.208Z,70.90
2023-03-03T01:54:16.076Z,66.00
2023-03-03T01:55:51.494Z,67.30
2023-03-03T01:57:29.705Z,69.97
2023-03-03T01:59:07.173Z,70.93
2023-03-03T02:00:43.504Z,68.22
2023-03-03T02:02:16.965Z,68.75
2023-03-03T02:03:50.237Z,71.43
2023-03-03T02:05:24.254Z,63.83
2023-03-03T02:07:02.043Z,75.85
2023-03-03T02:08:40.740Z,69.45
2023-03-03T02:10:15.438Z,74.78
2023-03-03T02:11:52.693Z,68.28
2023-03-03T02:13:25.803Z,70.75
2023-03-03T02:15:01.760Z,68.25
2023-03-03T02:16:35.055Z,72.72
2023-03-03T02:18:12.108Z,68.13
2023-03-03T02:19:54.153Z,71.85
2023-03-03T02:21:28.404Z,68.18
2023-03-03T02:23:09.011Z,72.50
2023-03-03T02:24:46.441Z,74.85
2023-03-03T02:26:23.907Z,74.07
2023-03-03T02:28:03.349Z,73.18
2023-03-03T02:29:36.650Z,72.50
2023-03-03T02:31:15.614Z,83.65
2023-03-03T02:32:49.882Z,76.47
2023-03-03T02:34:23.103Z,80.53
2023-03-03T02:35:55.768Z,85.00
2023-03-03T02:37:30.218Z,85.00
2023-03-03T02:39:08.779Z,79.35
2023-03-03T02:40:44.843Z,74.75
2023-03-03T02:42:23.186Z,80.32
2023-03-03T02:44:02.419Z,81.05
2023-03-03T02:45:36.409Z,71.88
2023-03-03T02:47:10.113Z,73.65
2023-03-03T02:48:42.711Z,66.47
2023-03-03T02:50:16.461Z,73.88
2023-03-03T02:51:49.935Z,71.05
2023-03-03T02:53:22.387Z,84.40
2023-03-03T02:54:55.536Z,76.88
2023-03-03T02:56:28.375Z,75.65
2023-03-03T02:58:02.872Z,82.65
2023-03-03T02:59:36.528Z,79.68
2023-03-03T03:01:27.636Z,79.10
2023-03-03T03:03:01.418Z,86.03
2023-03-03T03:04:34.643Z,77.13
2023-03-03T03:06:08.012Z,87.90
2023-03-03T03:07:41.714Z,81.15
2023-03-03T03:09:16.754Z,85.78
2023-03-03T03:10:51.720Z,85.85
2023-03-03T03:12:25.414Z,90.63
2023-03-03T03:14:02.492Z,99.80
2023-03-03T03:15:36.891Z,110.32
2023-03-03T03:17:11.826Z,94.00
2023-03-03T03:18:45.317Z,84.35
2023-03-03T03:20:18.930Z,97.93
2023-03-03T03:21:52.295Z,81.93
2023-03-03T03:23:26.546Z,79.15
2023-03-03T03:24:59.752Z,72.68
2023-03-03T03:26:33.069Z,74.30
2023-03-03T03:28:05.922Z,76.95
2023-03-03T03:29:40.882Z,77.15
2023-03-03T03:31:15.174Z,67.88
2023-03-03T03:32:48.463Z,70.47
2023-03-03T03:34:22.075Z,70.85
2023-03-03T03:35:56.869Z,71.57
2023-03-03T03:37:31.092Z,71.43
2023-03-03T03:39:06.526Z,68.13
2023-03-03T03:40:42.850Z,71.25
2023-03-03T03:42:16.000Z,58.13
2023-03-03T03:43:49.698Z,61.35
2023-03-03T03:45:24.296Z,65.03
2023-03-03T03:46:58.186Z,102.05
2023-03-03T03:48:31.781Z,176.98
2023-03-03T03:50:06.796Z,170.73
2023-03-03T03:51:41.984Z,92.35
2023-03-03T03:53:19.951Z,60.53
2023-03-03T03:54:53.593Z,66.20
2023-03-03T03:56:26.971Z,58.03
2023-03-03T03:58:02.919Z,67.35
2023-03-03T03:59:35.482Z,53.53
2023-03-03T04:01:10.272Z,51.85
2023-03-03T04:02:49.243Z,58.10
2023-03-03T04:04:24.650Z,56.03
2023-03-03T04:05:58.170Z,53.55
2023-03-03T04:07:31.761Z,54.13
2023-03-03T04:09:04.795Z,62.90
2023-03-03T04:10:38.848Z,59.28
2023-03-03T04:12:13.152Z,55.00
2023-03-03T04:13:46.341Z,56.20
2023-03-03T04:15:20.009Z,54.33
2023-03-03T04:16:55.700Z,59.97
2023-03-03T04:18:29.707Z,105.88
2023-03-03T04:20:03.753Z,68.78
2023-03-03T04:21:37.614Z,104.13
2023-03-03T04:23:10.882Z,63.15
2023-03-03T04:24:44.187Z,100.63
2023-03-03T04:26:17.472Z,139.82
2023-03-03T04:27:52.273Z,81.80
2023-03-03T04:29:27.344Z,56.65
2023-03-03T04:31:00.624Z,62.35
2023-03-03T04:32:37.008Z,60.75
2023-03-03T04:34:11.801Z,48.58
2023-03-03T04:35:45.730Z,56.10
2023-03-03T04:37:19.017Z,54.88
2023-03-03T04:38:52.580Z,66.97
2023-03-03T04:40:26.518Z,55.53
2023-03-03T04:41:59.899Z,61.13
2023-03-03T04:43:33.948Z,63.13
2023-03-03T04:45:08.058Z,58.00
2023-03-03T04:46:41.849Z,58.13
2023-03-03T04:48:17.093Z,52.92
2023-03-03T04:49:49.555Z,52.13
2023-03-03T04:51:22.947Z,57.05
2023-03-03T04:52:56.297Z,58.33
2023-03-03T04:54:28.697Z,54.67
2023-03-03T04:56:02.135Z,59.25
2023-03-03T04:57:34.315Z,56.00
2023-03-03T04:59:07.860Z,58.47
2023-03-03T05:00:41.147Z,63.63
2023-03-03T05:02:15.974Z,60.97
2023-03-03T05:03:50.931Z,61.97
2023-03-03T05:05:24.442Z,61.55
2023-03-03T05:06:57.648Z,54.78
2023-03-03T05:08:31.151Z,56.75
2023-03-03T05:10:04.409Z,52.15
2023-03-03T05:11:37.734Z,57.70
2023-03-03T05:13:11.078Z,59.67
2023-03-03T05:14:44.621Z,62.55
2023-03-03T05:16:16.845Z,61.55
2023-03-03T05:17:50.317Z,60.00
2023-03-03T05:19:25.627Z,63.38
2023-03-03T05:20:59.032Z,67.47
2023-03-03T05:22:32.207Z,57.15
2023-03-03T05:24:05.945Z,59.92
2023-03-03T05:25:39.329Z,59.97
2023-03-03T05:27:12.830Z,63.28
2023-03-03T05:28:46.007Z,53.40
2023-03-03T05:30:19.317Z,60.35
2023-03-03T05:31:52.870Z,67.57
2023-03-03T05:33:26.494Z,60.20
2023-03-03T05:35:00.983Z,60.97
2023-03-03T05:36:33.221Z,55.10
2023-03-03T05:38:06.470Z,57.17
2023-03-03T05:39:38.966Z,63.55
2023-03-03T05:41:12.236Z,70.85
2023-03-03T05:42:45.606Z,84.30
2023-03-03T05:44:20.679Z,64.07
2023-03-03T05:45:56.902Z,66.10
2023-03-03T05:47:30.893Z,65.55
2023-03-03T05:49:04.286Z,68.55
2023-03-03T05:50:39.583Z,75.75
2023-03-03T05:52:12.900Z,75.40
2023-03-03T05:53:46.090Z,72.25
2023-03-03T05:55:20.019Z,67.07
2023-03-03T05:56:53.111Z,74.28
2023-03-03T05:58:27.567Z,87.97
2023-03-03T06:00:00.696Z,69.13
2023-03-03T06:01:34.112Z,75.45
2023-03-03T06:03:07.527Z,129.02
2023-03-03T06:04:41.203Z,64.70
2023-03-03T06:06:17.156Z,65.85
2023-03-03T06:07:50.476Z,66.05
2023-03-03T06:09:23.694Z,64.90
2023-03-03T06:10:56.896Z,56.90
2023-03-03T06:12:30.754Z,59.78
2023-03-03T06:14:04.114Z,68.63
2023-03-03T06:15:37.383Z,65.90
2023-03-03T06:17:10.863Z,64.82
2023-03-03T06:18:44.075Z,53.20
2023-03-03T06:20:17.884Z,62.92
2023-03-03T06:21:52.426Z,49.50
2023-03-03T06:23:25.704Z,55.50
2023-03-03T06:24:58.894Z,56.63
2023-03-03T06:26:33.446Z,51.35
2023-03-03T06:28:06.638Z,55.20
2023-03-03T06:29:39.872Z,64.55
2023-03-03T06:31:13.134Z,63.58
2023-03-03T06:32:46.902Z,59.17
2023-03-03T06:34:20.341Z,55.85
2023-03-03T06:35:55.625Z,56.85
2023-03-03T06:37:30.155Z,50.10
2023-03-03T06:39:04.056Z,50.95
2023-03-03T06:40:37.464Z,51.95
2023-03-03T06:42:10.887Z,59.70
2023-03-03T06:43:44.230Z,50.22
2023-03-03T06:45:18.266Z,46.10
2023-03-03T06:46:51.837Z,49.97
2023-03-03T06:48:25.124Z,47.67
2023-03-03T06:49:58.210Z,52.92
2023-03-03T06:51:35.361Z,49.17
2023-03-03T06:53:14.779Z,51.25
2023-03-03T06:54:47.979Z,53.22
2023-03-03T06:56:21.210Z,48.10
2023-03-03T06:57:56.090Z,50.65
2023-03-03T06:59:29.747Z,50.50
2023-03-03T07:01:03.622Z,45.17
2023-03-03T07:02:36.840Z,43.22
2023-03-03T07:04:22.872Z,37.30
2023-03-03T07:05:56.258Z,50.35
2023-03-03T07:07:28.725Z,45.90
2023-03-03T07:09:03.163Z,46.65
2023-03-03T07:10:36.437Z,43.60
2023-03-03T07:12:14.611Z,41.65
2023-03-03T07:13:50.075Z,45.83
2023-03-03T07:15:25.896Z,44.38
2023-03-03T07:17:02.912Z,39.47
2023-03-03T07:18:40.724Z,62.15
2023-03-03T07:20:20.905Z,50.78
2023-03-03T07:21:54.204Z,49.30
2023-03-03T07:23:30.870Z,56.83
2023-03-03T07:25:20.737Z,48.38
2023-03-03T07:26:54.297Z,47.20
2023-03-03T07:28:29.355Z,51.88
2023-03-03T07:30:23.318Z,53.42
2023-03-03T07:31:58.128Z,46.28
2023-03-03T07:33:36.268Z,48.92
2023-03-03T07:35:38.417Z,50.38
2023-03-03T07:37:18.672Z,57.08
2023-03-03T07:38:55.763Z,75.55
2023-03-03T07:40:38.462Z,72.78
2023-03-03T07:42:22.145Z,48.60
2023-03-03T07:44:06.277Z,51.17
2023-03-03T07:45:39.666Z,52.63
2023-03-03T07:47:21.547Z,103.22
2023-03-03T07:48:55.956Z,51.67
2023-03-03T07:50:29.095Z,45.22
2023-03-03T07:52:02.874Z,48.13
2023-03-03T07:53:38.203Z,49.42
2023-03-03T07:55:31.678Z,54.03
2023-03-03T07:57:20.149Z,58.08
2023-03-03T07:58:53.507Z,47.03
2023-03-03T08:01:14.263Z,47.42
2023-03-03T08:02:54.144Z,43.22
2023-03-03T08:04:33.729Z,45.38
2023-03-03T08:06:26.621Z,41.90
2023-03-03T08:08:16.164Z,44.42
2023-03-03T08:09:52.257Z,44.42
2023-03-03T08:11:26.796Z,45.22
2023-03-03T08:13:10.154Z,53.63
2023-03-03T08:14:43.524Z,48.38
2023-03-03T08:16:30.047Z,47.80
2023-03-03T08:18:05.402Z,49.08
2023-03-03T08:19:38.861Z,42.15
2023-03-03T08:21:14.194Z,50.55
2023-03-03T08:22:47.506Z,50.28
2023-03-03T08:24:20.708Z,53.50
2023-03-03T08:25:54.613Z,45.28
2023-03-03T08:27:27.887Z,46.72
2023-03-03T08:29:02.611Z,42.15
2023-03-03T08:30:35.014Z,45.63
2023-03-03T08:32:08.482Z,42.15
2023-03-03T08:33:41.943Z,52.58
2023-03-03T08:35:15.410Z,44.05
2023-03-03T08:36:49.647Z,47.65
2023-03-03T08:38:23.762Z,40.47
2023-03-03T08:39:56.895Z,47.53
2023-03-03T08:41:30.448Z,41.20
2023-03-03T08:43:03.760Z,43.22
2023-03-03T08:44:38.403Z,45.20
2023-03-03T08:46:11.990Z,47.90
2023-03-03T08:47:45.616Z,49.75
2023-03-03T08:49:18.903Z,47.53
2023-03-03T08:50:52.428Z,70.18
2023-03-03T08:52:25.729Z,46.47
2023-03-03T08:53:59.058Z,45.22
2023-03-03T08:55:32.679Z,46.22
2023-03-03T08:57:06.140Z,56.10
2023-03-03T08:58:42.001Z,91.75
2023-03-03T09:00:21.187Z,59.10
2023-03-03T09:01:55.178Z,66.88
2023-03-03T09:03:28.607Z,51.97
2023-03-03T09:05:01.850Z,47.75
2023-03-03T09:06:35.064Z,52.45
2023-03-03T09:08:09.342Z,36.67
2023-03-03T09:09:43.052Z,37.90
2023-03-03T09:11:23.278Z,39.17
2023-03-03T09:12:58.723Z,36.50
2023-03-03T09:14:31.887Z,35.75
2023-03-03T09:16:14.404Z,35.25
2023-03-03T09:17:48.823Z,37.50
2023-03-03T09:19:26.896Z,31.75
2023-03-03T09:21:00.028Z,34.80
2023-03-03T09:22:39.410Z,33.90
2023-03-03T09:24:25.567Z,44.55
2023-03-03T09:26:00.607Z,39.13
2023-03-03T09:27:38.284Z,35.10
2023-03-03T09:29:21.106Z,37.55
2023-03-03T09:30:55.893Z,37.58
2023-03-03T09:32:39.358Z,41.42
2023-03-03T09:34:20.893Z,29.73
2023-03-03T09:35:59.460Z,31.20
2023-03-03T09:37:41.190Z,27.23
2023-03-03T09:39:21.925Z,34.45
2023-03-03T09:41:21.408Z,35.58
2023-03-03T09:43:04.606Z,30.10
2023-03-03T09:45:05.933Z,39.05
2023-03-03T09:46:46.896Z,34.63
2023-03-03T09:48:47.904Z,39.75
2023-03-03T09:50:31.109Z,43.75
2023-03-03T09:52:31.360Z,50.97
2023-03-03T09:54:18.864Z,43.28
2023-03-03T09:56:00.198Z,50.80
2023-03-03T09:58:10.000Z,46.75
2023-03-03T10:00:10.271Z,40.67
2023-03-03T10:01:59.466Z,33.70
2023-03-03T10:04:07.185Z,39.08
2023-03-03T10:05:50.750Z,36.03
2023-03-03T10:07:43.047Z,38.90
2023-03-03T10:09:46.406Z,34.60
2023-03-03T10:11:24.688Z,28.33
2023-03-03T10:13:09.204Z,29.88
2023-03-03T10:15:13.138Z,30.75
2023-03-03T10:16:58.226Z,31.42
2023-03-03T10:18:36.733Z,28.75
2023-03-03T10:20:25.198Z,28.50
2023-03-03T10:22:08.232Z,29.90
2023-03-03T10:23:58.680Z,31.13
2023-03-03T10:25:42.882Z,27.13
2023-03-03T10:27:31.275Z,31.23
2023-03-03T10:29:22.072Z,31.77
2023-03-03T10:31:13.615Z,37.33
2023-03-03T10:32:55.576Z,30.88
2023-03-03T10:34:53.002Z,27.05
2023-03-03T10:36:50.858Z,23.35
2023-03-03T10:38:56.856Z,35.20
2023-03-03T10:40:36.599Z,25.95
2023-03-03T10:42:27.521Z,41.95
2023-03-03T10:44:26.145Z,30.10
2023-03-03T10:46:20.731Z,28.52
2023-03-03T10:48:17.695Z,36.53
2023-03-03T10:50:04.882Z,56.58
2023-03-03T10:51:54.874Z,42.40
2023-03-03T10:53:35.461Z,28.35
2023-03-03T10:55:21.614Z,36.00
2023-03-03T10:57:04.336Z,50.63
2023-03-03T10:58:47.822Z,51.17
2023-03-03T11:00:32.123Z,31.35
2023-03-03T11:02:14.456Z,32.63
2023-03-03T11:04:11.669Z,45.22
2023-03-03T11:05:52.837Z,45.15
2023-03-03T11:07:32.697Z,22.00
2023-03-03T11:09:19.935Z,24.95
2023-03-03T11:11:01.269Z,29.35
2023-03-03T11:12:47.855Z,38.75
2023-03-03T11:14:58.123Z,28.80
2023-03-03T11:16:43.116Z,27.00
2023-03-03T11:18:34.965Z,27.80
2023-03-03T11:20:20.749Z,47.45
2023-03-03T11:22:07.877Z,25.00
2023-03-03T11:24:02.353Z,111.03
2023-03-03T11:25:45.293Z,27.50
2023-03-03T11:27:39.343Z,25.63
2023-03-03T11:29:28.211Z,22.90
2023-03-03T11:31:14.673Z,18.50
2023-03-03T11:32:54.899Z,21.67
2023-03-03T11:34:47.970Z,21.50
2023-03-03T11:36:28.924Z,27.38
2023-03-03T11:38:14.515Z,23.02
2023-03-03T11:39:49.659Z,30.52
2023-03-03T11:41:33.382Z,30.67
2023-03-03T11:43:26.232Z,20.88
2023-03-03T11:45:19.110Z,23.00
2023-03-03T11:46:57.816Z,22.40
2023-03-03T11:48:38.192Z,24.17
2023-03-03T11:50:21.551Z,26.10
2023-03-03T11:52:05.622Z,37.17
2023-03-03T11:53:55.164Z,23.30
2023-03-03T11:55:32.008Z,27.80
2023-03-03T11:57:20.491Z,26.90
2023-03-03T11:59:05.177Z,25.55
2023-03-03T12:00:46.915Z,19.40
2023-03-03T12:02:47.028Z,22.70
2023-03-03T12:04:23.388Z,31.23
2023-03-03T12:06:04.933Z,30.67
2023-03-03T12:07:46.834Z,25.27
2023-03-03T12:09:41.553Z,25.63
2023-03-03T12:11:24.042Z,32.28
2023-03-03T12:13:06.002Z,27.52
2023-03-03T12:14:55.334Z,32.28
2023-03-03T12:16:41.987Z,28.65
2023-03-03T12:18:36.648Z,32.60
2023-03-03T12:20:19.279Z,35.58
2023-03-03T12:22:07.943Z,29.35
2023-03-03T12:23:58.087Z,35.22
2023-03-03T12:25:38.892Z,35.03
2023-03-03T12:27:21.049Z,35.92
2023-03-03T12:28:59.832Z,41.58
2023-03-03T12:30:50.821Z,39.55
2023-03-03T12:32:36.663Z,41.20
2023-03-03T12:34:21.506Z,49.30
2023-03-03T12:36:05.995Z,64.10
2023-03-03T12:37:52.602Z,45.90
2023-03-03T12:39:45.563Z,44.15
2023-03-03T12:41:27.157Z,58.00
2023-03-03T12:43:19.124Z,47.80
2023-03-03T12:45:08.515Z,56.35
2023-03-03T12:46:47.422Z,48.00
2023-03-03T12:48:25.353Z,106.20
2023-03-03T12:50:14.532Z,62.35
2023-03-03T12:52:05.481Z,40.88
2023-03-03T12:54:05.430Z,38.17
2023-03-03T12:55:50.858Z,46.75
2023-03-03T12:57:36.089Z,33.20
2023-03-03T12:59:18.378Z,33.95
2023-03-03T13:01:00.953Z,35.10
2023-03-03T13:02:45.046Z,32.80
2023-03-03T13:04:33.772Z,38.40
2023-03-03T13:06:19.563Z,34.50
2023-03-03T13:08:02.951Z,28.45
2023-03-03T13:09:48.548Z,40.20
2023-03-03T13:11:37.839Z,34.75
2023-03-03T13:13:19.090Z,61.65
2023-03-03T13:14:56.380Z,56.13
2023-03-03T13:16:41.590Z,45.63
2023-03-03T13:18:31.160Z,39.58
2023-03-03T13:20:14.522Z,44.35
2023-03-03T13:21:53.830Z,39.35
2023-03-03T13:23:43.199Z,43.10
2023-03-03T13:25:35.619Z,56.20
2023-03-03T13:27:14.599Z,50.75
2023-03-03T13:29:00.596Z,50.88
2023-03-03T13:30:36.755Z,63.97
2023-03-03T13:32:16.494Z,43.00
2023-03-03T13:33:55.664Z,50.42
2023-03-03T13:35:41.527Z,47.20
2023-03-03T13:37:20.906Z,38.85
2023-03-03T13:38:58.984Z,39.70
2023-03-03T13:40:42.318Z,37.33
2023-03-03T13:42:24.967Z,42.25
2023-03-03T13:44:03.367Z,35.58
2023-03-03T13:45:43.933Z,42.33
2023-03-03T13:47:25.845Z,35.67
2023-03-03T13:49:29.090Z,38.17
2023-03-03T13:51:10.634Z,39.25
2023-03-03T13:52:53.287Z,39.85
2023-03-03T13:54:45.873Z,39.92
2023-03-03T13:56:32.424Z,50.40
2023-03-03T13:58:21.290Z,47.53
2023-03-03T14:00:02.897Z,60.20
2023-03-03T14:01:59.161Z,48.15
2023-03-03T14:04:06.385Z,57.95
2023-03-03T14:05:45.851Z,44.30
2023-03-03T14:07:27.932Z,49.88
2023-03-03T14:09:34.868Z,41.60
2023-03-03T14:11:13.204Z,45.00
2023-03-03T14:12:52.908Z,39.65
2023-03-03T14:14:40.196Z,44.47
2023-03-03T14:16:21.757Z,33.85
2023-03-03T14:18:32.388Z,38.70
2023-03-03T14:20:20.160Z,30.38
2023-03-03T14:22:07.520Z,27.45
2023-03-03T14:23:51.619Z,28.23
2023-03-03T14:25:25.460Z,85.28
2023-03-03T14:27:00.760Z,32.38
2023-03-03T14:28:41.078Z,31.05
2023-03-03T14:30:30.660Z,30.70
2023-03-03T14:32:25.136Z,29.42
2023-03-03T14:34:03.194Z,35.53
2023-03-03T14:35:39.988Z,61.75
2023-03-03T14:37:28.680Z,44.55
2023-03-03T14:39:02.611Z,31.05
2023-03-03T14:40:39.006Z,31.40
2023-03-03T14:42:16.079Z,28.52
2023-03-03T14:43:59.529Z,26.50
2023-03-03T14:45:36.229Z,23.55
2023-03-03T14:47:23.884Z,26.73
2023-03-03T14:48:59.385Z,31.65
2023-03-03T14:50:36.636Z,27.02
2023-03-03T14:52:22.588Z,28.30
2023-03-03T14:53:58.142Z,23.70
2023-03-03T14:55:37.125Z,21.50
2023-03-03T14:57:16.798Z,27.55
2023-03-03T14:58:52.218Z,33.83
2023-03-03T15:00:35.923Z,25.42
2023-03-03T15:02:33.343Z,21.50
2023-03-03T15:04:11.620Z,45.65
2023-03-03T15:05:51.153Z,40.38
2023-03-03T15:07:34.512Z,39.13
2023-03-03T15:09:36.800Z,39.72
2023-03-03T15:11:26.771Z,45.65
2023-03-03T15:13:09.898Z,40.47
2023-03-03T15:14:47.171Z,31.13
2023-03-03T15:16:23.579Z,26.15
2023-03-03T15:18:04.400Z,20.73
2023-03-03T15:19:50.432Z,28.85
2023-03-03T15:21:28.238Z,32.25
2023-03-03T15:23:26.884Z,24.55
2023-03-03T15:25:05.693Z,24.00
2023-03-03T15:26:48.535Z,22.73
2023-03-03T15:28:36.203Z,23.23
2023-03-03T15:30:22.729Z,31.60
2023-03-03T15:32:03.231Z,25.63
2023-03-03T15:33:47.138Z,29.83
2023-03-03T15:35:37.880Z,23.50
2023-03-03T15:37:28.701Z,77.53
2023-03-03T15:39:11.219Z,73.05
2023-03-03T15:40:50.119Z,95.15
2023-03-03T15:42:28.301Z,51.72
2023-03-03T15:44:12.592Z,38.83
2023-03-03T15:45:52.817Z,48.17
2023-03-03T15:47:42.418Z,34.67
2023-03-03T15:49:31.023Z,34.65
2023-03-03T15:51:14.646Z,41.10
2023-03-03T15:52:57.626Z,50.33
2023-03-03T15:54:43.331Z,29.90
2023-03-03T15:56:31.045Z,29.13
2023-03-03T15:58:33.293Z,43.08
2023-03-03T16:00:26.730Z,93.32
2023-03-03T16:02:13.253Z,46.60
2023-03-03T16:03:52.392Z,34.20
2023-03-03T16:05:40.439Z,42.63
2023-03-03T16:07:30.624Z,65.35
2023-03-03T16:09:10.595Z,57.78
2023-03-03T16:10:55.816Z,51.28
2023-03-03T16:12:41.412Z,54.70
2023-03-03T16:14:35.631Z,38.70
2023-03-03T16:16:21.685Z,50.20
2023-03-03T16:18:02.518Z,45.17
2023-03-03T16:19:44.753Z,31.98
2023-03-03T16:21:48.465Z,46.95
2023-03-03T16:23:36.128Z,55.33
2023-03-03T16:25:30.121Z,61.00
2023-03-03T16:27:12.245Z,83.68
2023-03-03T16:28:57.894Z,52.45
2023-03-03T16:30:35.924Z,41.60
2023-03-03T16:32:16.052Z,49.40
2023-03-03T16:33:56.107Z,48.85
2023-03-03T16:35:35.050Z,52.45
2023-03-03T16:37:17.443Z,59.08
2023-03-03T16:38:59.478Z,55.50
2023-03-03T16:40:37.970Z,57.05
2023-03-03T16:42:23.835Z,84.00
2023-03-03T16:44:05.747Z,84.05
2023-03-03T16:45:41.628Z,69.25
2023-03-03T16:47:35.909Z,60.05
2023-03-03T16:49:18.494Z,71.78
2023-03-03T16:51:04.063Z,47.33
2023-03-03T16:52:43.954Z,53.80
2023-03-03T16:54:26.587Z,52.28
2023-03-03T16:56:07.960Z,55.60
2023-03-03T16:57:52.533Z,52.80
2023-03-03T16:59:51.935Z,59.83
2023-03-03T17:01:33.480Z,34.85
2023-03-03T17:03:29.527Z,32.30
2023-03-03T17:05:09.496Z,37.55
2023-03-03T17:06:49.859Z,31.52
2023-03-03T17:08:38.552Z,35.90
2023-03-03T17:10:24.630Z,50.33
2023-03-03T17:12:09.974Z,54.05
2023-03-03T17:14:08.921Z,45.45
2023-03-03T17:15:53.308Z,40.95
2023-03-03T17:17:37.732Z,51.50
2023-03-03T17:19:23.143Z,68.70
2023-03-03T17:21:00.121Z,74.28
2023-03-03T17:22:46.488Z,84.68
2023-03-03T17:24:25.812Z,96.60
2023-03-03T17:26:10.853Z,100.68
2023-03-03T17:28:00.463Z,106.53
2023-03-03T17:29:55.270Z,94.20
2023-03-03T17:31:37.997Z,99.40
2023-03-03T17:33:25.192Z,86.35
2023-03-03T17:35:13.365Z,85.80
2023-03-03T17:37:03.401Z,88.40
2023-03-03T17:38:48.981Z,86.13
2023-03-03T17:40:52.580Z,86.28
2023-03-03T17:42:40.953Z,89.97
2023-03-03T17:44:21.725Z,92.65
2023-03-03T17:46:01.000Z,85.28
2023-03-03T17:47:51.917Z,116.05
2023-03-03T17:49:51.601Z,126.78
2023-03-03T17:51:46.164Z,107.20
2023-03-03T17:53:52.772Z,91.68
2023-03-03T17:55:45.517Z,100.63
2023-03-03T17:57:34.788Z,106.20
2023-03-03T17:59:23.651Z,101.97
2023-03-03T18:01:13.300Z,91.55
2023-03-03T18:03:20.099Z,78.50
2023-03-03T18:05:25.571Z,64.57
2023-03-03T18:07:28.254Z,46.08
2023-03-03T18:09:14.913Z,43.08
2023-03-03T18:11:20.535Z,45.47
2023-03-03T18:13:02.977Z,45.10
2023-03-03T18:15:03.641Z,45.45
2023-03-03T18:16:55.844Z,31.15
2023-03-03T18:18:49.210Z,35.17
2023-03-03T18:20:45.212Z,29.88
2023-03-03T18:22:23.783Z,35.28
2023-03-03T18:24:28.282Z,35.35
2023-03-03T18:26:03.132Z,40.60
2023-03-03T18:27:39.538Z,32.15
2023-03-03T18:29:25.882Z,27.88
2023-03-03T18:31:00.560Z,28.13
2023-03-03T18:32:46.529Z,28.85
2023-03-03T18:34:33.139Z,27.83
2023-03-03T18:36:15.780Z,29.95
2023-03-03T18:37:49.003Z,33.70
2023-03-03T18:39:43.465Z,35.05
2023-03-03T18:41:24.375Z,28.13
2023-03-03T18:42:57.033Z,32.50
2023-03-03T18:44:31.785Z,30.88
2023-03-03T18:46:05.395Z,35.47
2023-03-03T18:48:04.037Z,29.77
2023-03-03T18:49:55.531Z,31.27
2023-03-03T18:52:14.361Z,33.58
2023-03-03T18:54:02.580Z,33.75
2023-03-03T18:55:42.278Z,34.58
2023-03-03T18:57:17.924Z,38.22
2023-03-03T18:58:52.478Z,41.05
2023-03-03T19:00:30.246Z,35.60
2023-03-03T19:02:19.060Z,36.72
2023-03-03T19:04:17.255Z,37.83
2023-03-03T19:05:54.416Z,38.70
2023-03-03T19:07:30.612Z,39.00
2023-03-03T19:09:04.949Z,38.28
2023-03-03T19:10:56.378Z,43.90
2023-03-03T19:12:48.949Z,42.80
2023-03-03T19:14:33.583Z,42.13
2023-03-03T19:16:08.619Z,45.25
2023-03-03T19:17:54.397Z,48.20
2023-03-03T19:19:34.370Z,52.33
2023-03-03T19:21:21.258Z,54.45
2023-03-03T19:23:05.922Z,50.35
2023-03-03T19:24:39.471Z,48.33
2023-03-03T19:26:46.325Z,64.65
2023-03-03T19:28:39.201Z,57.55
2023-03-03T19:30:34.205Z,55.28
2023-03-03T19:32:25.331Z,67.85
2023-03-03T19:34:03.609Z,63.35
2023-03-03T19:35:47.414Z,67.43
2023-03-03T19:37:36.339Z,50.45
2023-03-03T19:39:36.673Z,52.88
2023-03-03T19:41:28.682Z,60.78
2023-03-03T19:43:13.520Z,49.00
2023-03-03T19:45:00.677Z,56.90
2023-03-03T19:46:51.672Z,66.38
2023-03-03T19:48:35.456Z,54.50
2023-03-03T19:50:25.572Z,55.72
2023-03-03T19:52:05.147Z,56.38
2023-03-03T19:53:50.438Z,66.80
2023-03-03T19:55:33.649Z,69.63
2023-03-03T19:57:17.041Z,52.35
2023-03-03T19:59:17.930Z,60.90
2023-03-03T20:01:00.361Z,60.15
2023-03-03T20:02:48.142Z,54.97
2023-03-03T20:04:45.798Z,47.03
2023-03-03T20:06:31.204Z,60.90
2023-03-03T20:08:14.509Z,47.00
2023-03-03T20:09:55.211Z,55.63
2023-03-03T20:11:48.285Z,47.13
2023-03-03T20:13:37.885Z,51.72
2023-03-03T20:15:19.423Z,60.88
2023-03-03T20:16:58.242Z,54.65
2023-03-03T20:18:59.029Z,50.75
2023-03-03T20:20:55.346Z,51.25
2023-03-03T20:22:36.647Z,53.35
2023-03-03T20:24:34.715Z,54.28
2023-03-03T20:26:16.390Z,50.28
2023-03-03T20:28:01.913Z,43.60
2023-03-03T20:29:52.715Z,41.95
2023-03-03T20:31:35.779Z,46.85
2023-03-03T20:33:20.642Z,56.08
2023-03-03T20:35:06.370Z,54.33
2023-03-03T20:36:50.245Z,57.60
2023-03-03T20:38:30.923Z,56.58
2023-03-03T20:40:12.153Z,45.55
2023-03-03T20:42:06.060Z,49.92
2023-03-03T20:43:56.667Z,43.92
2023-03-03T20:45:42.378Z,41.33
2023-03-03T20:47:28.056Z,42.33
2023-03-03T20:49:19.049Z,37.30
2023-03-03T20:51:00.552Z,42.92
2023-03-03T20:52:44.357Z,40.13
2023-03-03T20:54:27.668Z,50.47
2023-03-03T20:56:07.321Z,38.35
2023-03-03T20:57:49.958Z,43.88
2023-03-03T20:59:33.202Z,57.90
2023-03-03T21:01:09.066Z,49.17
2023-03-03T21:02:48.102Z,65.75
2023-03-03T21:04:27.661Z,67.07
2023-03-03T21:06:07.598Z,68.97
2023-03-03T21:07:52.213Z,68.93
2023-03-03T21:09:32.079Z,68.03
2023-03-03T21:11:07.999Z,69.05
2023-03-03T21:12:41.328Z,84.30
2023-03-03T21:14:20.544Z,73.68
2023-03-03T21:15:56.575Z,74.95
2023-03-03T21:17:31.349Z,61.08
2023-03-03T21:19:07.153Z,62.67
2023-03-03T21:20:40.349Z,59.47
2023-03-03T21:22:13.711Z,57.83
2023-03-03T21:23:46.940Z,56.63
2023-03-03T21:25:59.691Z,62.38
2023-03-03T21:27:37.188Z,52.55
2023-03-03T21:29:10.437Z,60.35
2023-03-03T21:31:13.264Z,60.63
2023-03-03T21:32:49.136Z,65.45
2023-03-03T21:34:26.269Z,60.30
2023-03-03T21:35:59.700Z,60.33
2023-03-03T21:37:48.522Z,63.95
2023-03-03T21:39:24.743Z,55.80
2023-03-03T21:41:01.681Z,53.83
2023-03-03T21:42:44.345Z,60.60